Etusivu
METAR-TAF:

METAR-TAF

Lentoasemat :

Oshima, Japani

Leveyspiiri: 34-47N, Pituuspiiri: 139-22E, korkeus merenpinnasta: 38 m

Tämänhetkinen sää

Tämä raportti tehtiin 6 tuntia ja 30 minuuttia sitten, kello 07.00 UTC
Tuuli 9 kn pohjoisesta/koillisesta
Lämpötila 17°C
Kosteus 72%
Ilmanpaine 1017 hPa
Näkyvyys 10 km tai enemmän
Muutamia pilviä 2500 ft:n korkeudessa

METAR: RJTO 130700Z 03009KT 9999 FEW025 17/12 Q1017

Aika: 22:30 (13:30 UTC)


TAF: puuttuu

Säähavainnot ja -ennusteet yli 4000 lentoasemalta (METAR- ja TAF-raportit).

Käytössä olevat sääasemat on merkitty karttaan keltaisilla ja punaisilla pisteillä.

Aseta hiiri pisteen päälle nähdäksesi sääaseman nimen.

Klikkaa sitten nähdäksesi säähavainnot ja -ennusteet.

Kartan vaihtaminen: klikkaa mustalla rastilla varustettuja vihreitä pisteitä, niin voit zoomata sisään; viivalla varustettua vihreää pistettä, niin voit zoomata ulos tai vihreitä nuolia, niin pääset viereisille kartoille.


METAR-TAF: